Pagrindinis puslapis
METAR-TAF:

METAR-TAF

Oro uostai :

Dižonas, Prancūzija

platuma: 47-16N, ilguma: 005-05E, Aukštis: 222 m

Dabartinis oras

Ataskaita buvo paskelbta 23 minutes, ne 11:30 UTC
Vėjas 12 kt iš Pietų/Pietvakarių, svyruoja nuo Pietų ir Vakarų/Pietvakarių
Temperatūra 18°C
Drėgmė 64%
Slėgis 1012 hPa
Matomumas 10 km arba daugiau

METAR: LFSD 161130Z AUTO 21012KT 170V240 9999 BKN039/// OVC045/// //////TCU 18/11 Q1012

Laikas: 13:53 (11:53 UTC)


TAF: trūkstamas

Orai ataskaitas ir orų prognozės (METAR, TAF).

turimą stotys yra geltonos ir raudonos taškus žemėlapyje.

Perkelti pele per norėdami pamatyti stoties vardą.

Tada spustelėkite, norėdami matyti oro stebėjimo ir prognozės.

Norėdami pakeisti žemėlapį: spustelėkite ant žalios mygtukų su juodo kryžiaus žemyn,; žalią mygtuką su brūkšneliu, jei norite nutolinti; arba žalių rodyklių gretimoms žemėlapius.


METAR-TAF: